Terminal Aerodrome Forecast
Issued by NWS Memphis, TN

Home | Current Version | Previous Version | Text Only | Print | Product List | Glossary On
Versions: 1 2 3 4 5 6 7 8 9 10 11 12 13 14 15 16 17 18 19 20 21 22 23 24 25 26 27 28
000
FTUS44 KMEG 190520
TAFJBR
TAF
KJBR 190520Z 1906/2006 VRB05KT P6SM VCSH SCT020 BKN050
     FM190800 VRB05KT 5SM BR VCSH SCT007 OVC020
     FM191000 23005KT 5SM BR VCSH OVC007
     FM191400 25007KT P6SM VCSH BKN015
     FM191600 25008KT P6SM SCT025 BKN040
     FM191800 22012KT P6SM SCT040 BKN250
     FM200300 20010KT P6SM VCTS SCT020 BKN040CB
      TEMPO 2003/2006 3SM TSRA OVC020CB=

USA.gov is the U.S. government's official web portal to all federal, state and local government web resources and services.